createdAt,value
2017-08-21T00:00:28.742Z,16.70
2017-08-21T00:02:56.315Z,16.70
2017-08-21T00:05:23.898Z,16.70
2017-08-21T00:07:51.912Z,16.70
2017-08-21T00:10:19.516Z,16.70
2017-08-21T00:12:47.096Z,16.70
2017-08-21T00:15:14.698Z,16.70
2017-08-21T00:17:42.334Z,16.70
2017-08-21T00:20:09.901Z,16.80
2017-08-21T00:22:37.487Z,16.80
2017-08-21T00:25:05.069Z,16.70
2017-08-21T00:27:32.651Z,16.70
2017-08-21T00:30:00.288Z,16.70
2017-08-21T00:32:27.827Z,16.70
2017-08-21T00:34:55.416Z,16.70
2017-08-21T00:37:23.784Z,16.70
2017-08-21T00:39:51.360Z,16.70
2017-08-21T00:42:19.057Z,16.70
2017-08-21T00:44:46.668Z,16.70
2017-08-21T00:47:14.262Z,16.70
2017-08-21T00:49:41.816Z,16.70
2017-08-21T00:52:10.262Z,16.70
2017-08-21T00:54:37.828Z,16.70
2017-08-21T00:57:05.389Z,16.70
2017-08-21T00:59:33.001Z,16.70
2017-08-21T01:02:00.573Z,16.70
2017-08-21T01:04:28.123Z,16.60
2017-08-21T01:06:56.026Z,16.60
2017-08-21T01:09:23.733Z,16.60
2017-08-21T01:11:51.296Z,16.60
2017-08-21T01:14:19.123Z,16.50
2017-08-21T01:16:46.688Z,16.60
2017-08-21T01:19:15.025Z,16.50
2017-08-21T01:21:42.869Z,16.50
2017-08-21T01:24:10.449Z,16.50
2017-08-21T01:26:38.009Z,16.50
2017-08-21T01:29:05.600Z,16.50
2017-08-21T01:31:33.203Z,16.50
2017-08-21T01:34:00.762Z,16.50
2017-08-21T01:36:28.792Z,16.50
2017-08-21T01:38:56.424Z,16.40
2017-08-21T01:41:23.988Z,16.40
2017-08-21T01:43:52.111Z,16.40
2017-08-21T01:46:19.671Z,16.40
2017-08-21T01:48:47.272Z,16.40
2017-08-21T01:51:14.897Z,16.30
2017-08-21T01:53:42.484Z,16.30
2017-08-21T01:56:10.216Z,16.20
2017-08-21T01:58:37.849Z,16.20
2017-08-21T02:01:05.445Z,16.20
2017-08-21T02:03:33.012Z,16.20
2017-08-21T02:06:00.616Z,16.10
2017-08-21T02:08:28.196Z,16.10
2017-08-21T02:10:55.797Z,16.00
2017-08-21T02:13:23.695Z,16.00
2017-08-21T02:15:51.250Z,16.00
2017-08-21T02:18:18.809Z,16.00
2017-08-21T02:20:46.716Z,15.90
2017-08-21T02:23:15.080Z,15.90
2017-08-21T02:25:42.654Z,15.90
2017-08-21T02:28:11.355Z,15.90
2017-08-21T02:30:38.948Z,15.90
2017-08-21T02:33:06.558Z,15.90
2017-08-21T02:35:34.544Z,15.80
2017-08-21T02:38:02.153Z,15.80
2017-08-21T02:40:29.712Z,15.70
2017-08-21T02:42:57.583Z,15.70
2017-08-21T02:45:25.186Z,15.70
2017-08-21T02:47:52.816Z,15.70
2017-08-21T02:50:20.740Z,15.70
2017-08-21T02:52:48.345Z,15.70
2017-08-21T02:55:15.900Z,15.70
2017-08-21T02:57:43.903Z,15.70
2017-08-21T03:00:12.228Z,15.60
2017-08-21T03:02:39.795Z,15.60
2017-08-21T03:05:07.717Z,15.60
2017-08-21T03:07:35.343Z,15.70
2017-08-21T03:10:02.994Z,15.70
2017-08-21T03:12:30.600Z,15.70
2017-08-21T03:14:58.214Z,15.70
2017-08-21T03:17:25.793Z,15.70
2017-08-21T03:19:53.643Z,15.70
2017-08-21T03:22:21.270Z,15.60
2017-08-21T03:24:48.854Z,15.60
2017-08-21T03:27:16.504Z,15.60
2017-08-21T03:29:44.085Z,15.60
2017-08-21T03:32:11.666Z,15.60
2017-08-21T03:34:39.303Z,15.60
2017-08-21T03:37:06.897Z,15.50
2017-08-21T03:39:35.232Z,15.50
2017-08-21T03:42:03.230Z,15.50
2017-08-21T03:44:30.839Z,15.50
2017-08-21T03:46:58.455Z,15.40
2017-08-21T03:49:26.414Z,15.40
2017-08-21T03:51:53.975Z,15.40
2017-08-21T03:54:21.545Z,15.40
2017-08-21T03:56:49.955Z,15.40
2017-08-21T03:59:17.549Z,15.30
2017-08-21T04:01:45.150Z,15.40
2017-08-21T04:04:13.566Z,15.40
2017-08-21T04:06:41.225Z,15.40
2017-08-21T04:09:09.127Z,15.50
2017-08-21T04:11:36.724Z,15.50
2017-08-21T04:14:04.555Z,15.50
2017-08-21T04:16:32.176Z,15.50
2017-08-21T04:18:59.787Z,15.50
2017-08-21T04:21:27.398Z,15.50
2017-08-21T04:23:54.970Z,15.50
2017-08-21T04:26:22.737Z,15.50
2017-08-21T04:28:50.329Z,15.50
2017-08-21T04:31:17.892Z,15.50
2017-08-21T04:33:45.544Z,15.50
2017-08-21T04:36:13.103Z,15.60
2017-08-21T04:38:40.691Z,15.70
2017-08-21T04:41:09.216Z,15.90
2017-08-21T04:43:36.833Z,15.80
2017-08-21T04:46:05.158Z,16.00
2017-08-21T04:48:32.763Z,15.90
2017-08-21T04:51:00.363Z,16.00
2017-08-21T04:53:27.974Z,16.00
2017-08-21T04:55:55.791Z,16.00
2017-08-21T04:58:23.347Z,16.00
2017-08-21T05:00:50.946Z,16.00
2017-08-21T05:03:18.828Z,16.00
2017-08-21T05:05:46.740Z,16.00
2017-08-21T05:08:14.340Z,16.00
2017-08-21T05:10:42.701Z,16.10
2017-08-21T05:13:10.391Z,16.10
2017-08-21T05:15:38.093Z,16.10
2017-08-21T05:18:06.456Z,16.20
2017-08-21T05:20:34.032Z,16.20
2017-08-21T05:23:01.589Z,16.20
2017-08-21T05:25:29.534Z,16.30
2017-08-21T05:27:57.092Z,16.30
2017-08-21T05:30:24.660Z,16.30
2017-08-21T05:32:53.077Z,16.40
2017-08-21T05:35:20.747Z,16.40
2017-08-21T05:37:48.380Z,16.40
2017-08-21T05:40:15.946Z,16.50
2017-08-21T05:42:43.562Z,16.60
2017-08-21T05:45:11.195Z,16.70
2017-08-21T05:47:38.750Z,16.80
2017-08-21T05:50:06.623Z,16.90
2017-08-21T05:52:34.257Z,16.90
2017-08-21T05:55:01.826Z,16.90
2017-08-21T05:57:29.470Z,16.90
2017-08-21T05:59:57.069Z,17.00
2017-08-21T06:02:24.679Z,17.00
2017-08-21T06:04:53.029Z,17.00
2017-08-21T06:07:21.004Z,16.90
2017-08-21T06:09:48.603Z,16.90
2017-08-21T06:12:16.162Z,16.90
2017-08-21T06:14:43.771Z,16.90
2017-08-21T06:17:11.354Z,16.90
2017-08-21T06:19:39.311Z,17.00
2017-08-21T06:22:06.932Z,17.00
2017-08-21T06:24:34.802Z,17.30
2017-08-21T06:27:02.417Z,17.30
2017-08-21T06:29:29.984Z,17.30
2017-08-21T06:31:59.562Z,17.60
2017-08-21T06:34:27.153Z,17.60
2017-08-21T06:36:55.106Z,17.70
2017-08-21T06:39:27.621Z,17.80
2017-08-21T06:41:55.321Z,18.00
2017-08-21T06:44:23.312Z,18.10
2017-08-21T06:46:50.906Z,18.00
2017-08-21T06:49:18.478Z,18.30
2017-08-21T06:51:46.333Z,18.30
2017-08-21T06:54:14.772Z,18.30
2017-08-21T06:56:43.009Z,18.20
2017-08-21T06:59:10.638Z,18.10
2017-08-21T07:01:38.263Z,18.20
2017-08-21T07:04:05.973Z,18.30
2017-08-21T07:06:33.568Z,18.30
2017-08-21T07:09:01.481Z,18.30
2017-08-21T07:11:29.980Z,18.30
2017-08-21T07:13:57.564Z,18.30
2017-08-21T07:16:25.171Z,18.30
2017-08-21T07:18:52.737Z,18.30
2017-08-21T07:21:21.360Z,18.30
2017-08-21T07:23:48.956Z,18.30
2017-08-21T07:26:16.517Z,18.30
2017-08-21T07:28:44.401Z,18.40
2017-08-21T07:31:12.768Z,18.50
2017-08-21T07:33:40.711Z,18.50
2017-08-21T07:36:08.315Z,18.50
2017-08-21T07:38:35.865Z,18.60
2017-08-21T07:41:03.475Z,18.60
2017-08-21T07:43:31.064Z,18.50
2017-08-21T07:45:59.085Z,18.40
2017-08-21T07:48:26.658Z,18.40
2017-08-21T07:50:54.242Z,18.50
2017-08-21T07:53:21.866Z,18.60
2017-08-21T07:55:49.422Z,18.70
2017-08-21T07:58:17.355Z,18.70
2017-08-21T08:00:44.912Z,18.80
2017-08-21T08:03:12.462Z,18.70
2017-08-21T08:05:40.084Z,18.70
2017-08-21T08:08:07.652Z,18.60
2017-08-21T08:10:35.596Z,18.50
2017-08-21T08:13:03.163Z,18.40
2017-08-21T08:15:30.766Z,18.30
2017-08-21T08:17:58.425Z,18.40
2017-08-21T08:20:25.977Z,18.40
2017-08-21T08:22:53.984Z,18.50
2017-08-21T08:25:22.346Z,19.30
2017-08-21T08:27:49.907Z,19.30
2017-08-21T08:30:17.810Z,19.30
2017-08-21T08:32:45.375Z,19.20
2017-08-21T08:35:13.018Z,19.20
2017-08-21T08:37:40.596Z,19.10
2017-08-21T08:40:08.194Z,19.20
2017-08-21T08:42:35.795Z,19.50
2017-08-21T08:45:03.424Z,20.00
2017-08-21T08:47:31.407Z,20.00
2017-08-21T08:49:58.990Z,19.80
2017-08-21T08:52:26.541Z,19.70
2017-08-21T08:54:54.924Z,19.50
2017-08-21T08:57:22.475Z,19.50
2017-08-21T08:59:51.398Z,20.10
2017-08-21T09:02:19.024Z,20.10
2017-08-21T09:04:47.420Z,19.70
2017-08-21T09:07:15.062Z,19.70
2017-08-21T09:09:42.621Z,19.50
2017-08-21T09:12:10.748Z,19.20
2017-08-21T09:14:38.354Z,19.00
2017-08-21T09:17:05.913Z,19.40
2017-08-21T09:19:33.526Z,19.80
2017-08-21T09:22:01.138Z,20.10
2017-08-21T09:24:29.071Z,20.50
2017-08-21T09:26:56.664Z,20.80
2017-08-21T09:29:24.269Z,21.20
2017-08-21T09:31:51.933Z,21.60
2017-08-21T09:34:19.516Z,21.80
2017-08-21T09:36:47.265Z,22.00
2017-08-21T09:39:14.850Z,21.60
2017-08-21T09:41:42.438Z,21.30
2017-08-21T09:44:10.834Z,21.00
2017-08-21T09:46:38.442Z,21.00
2017-08-21T09:49:06.339Z,20.70
2017-08-21T09:51:33.906Z,20.60
2017-08-21T09:54:02.276Z,20.10
2017-08-21T09:56:29.918Z,20.10
2017-08-21T09:58:57.505Z,20.00
2017-08-21T10:01:26.184Z,21.00
2017-08-21T10:03:53.750Z,21.00
2017-08-21T10:06:21.348Z,21.40
2017-08-21T10:08:49.015Z,21.90
2017-08-21T10:11:16.568Z,21.70
2017-08-21T10:14:13.993Z,21.50
2017-08-21T10:16:41.554Z,21.20
2017-08-21T10:19:09.113Z,21.70
2017-08-21T10:21:36.776Z,22.00
2017-08-21T10:24:04.350Z,22.10
2017-08-21T10:26:32.284Z,21.90
2017-08-21T10:28:59.888Z,21.70
2017-08-21T10:31:27.444Z,21.50
2017-08-21T10:33:55.045Z,21.30
2017-08-21T10:36:22.898Z,21.20
2017-08-21T10:38:50.561Z,21.40
2017-08-21T10:41:18.155Z,21.60
2017-08-21T10:43:45.757Z,21.60
2017-08-21T10:46:13.354Z,21.50
2017-08-21T10:48:40.933Z,21.50
2017-08-21T10:51:08.918Z,21.50
2017-08-21T10:53:36.481Z,21.60
2017-08-21T10:56:04.122Z,21.70
2017-08-21T10:58:31.736Z,21.70
2017-08-21T11:00:59.320Z,21.70
2017-08-21T11:03:27.233Z,21.70
2017-08-21T11:05:54.850Z,21.80
2017-08-21T11:08:22.413Z,21.90
2017-08-21T11:10:50.010Z,21.90
2017-08-21T11:13:17.702Z,21.90
2017-08-21T11:15:45.895Z,21.80
2017-08-21T11:18:13.466Z,21.70
2017-08-21T11:20:41.070Z,21.60
2017-08-21T11:23:08.821Z,21.60
2017-08-21T11:25:36.441Z,21.60
2017-08-21T11:28:04.477Z,21.70
2017-08-21T11:30:32.069Z,21.70
2017-08-21T11:32:59.637Z,21.50
2017-08-21T11:35:27.283Z,21.50
2017-08-21T11:37:54.871Z,21.50
2017-08-21T11:40:22.512Z,21.40
2017-08-21T11:42:50.200Z,21.30
2017-08-21T11:45:17.763Z,21.20
2017-08-21T11:47:45.398Z,21.10
2017-08-21T11:50:12.993Z,21.10
2017-08-21T11:52:41.824Z,21.10
2017-08-21T11:55:09.599Z,21.10
2017-08-21T11:57:37.174Z,21.10
2017-08-21T12:00:04.786Z,21.10
2017-08-21T12:02:32.349Z,21.00
2017-08-21T12:05:00.285Z,21.00
2017-08-21T12:07:27.893Z,21.10
2017-08-21T12:09:55.505Z,21.10
2017-08-21T12:12:23.134Z,21.20
2017-08-21T12:14:50.763Z,21.30
2017-08-21T12:17:18.746Z,21.50
2017-08-21T12:19:46.359Z,21.60
2017-08-21T12:22:13.937Z,21.70
2017-08-21T12:24:41.576Z,21.60
2017-08-21T12:27:09.214Z,21.50
2017-08-21T12:29:37.230Z,21.50
2017-08-21T12:32:04.844Z,21.40
2017-08-21T12:34:32.433Z,21.30
2017-08-21T12:37:00.074Z,21.30
2017-08-21T12:39:27.707Z,21.40
2017-08-21T12:41:56.305Z,21.50
2017-08-21T12:44:24.649Z,21.50
2017-08-21T12:46:53.117Z,21.60
2017-08-21T12:49:20.780Z,21.70
2017-08-21T12:51:48.340Z,21.70
2017-08-21T12:54:16.288Z,21.60
2017-08-21T12:56:43.922Z,21.60
2017-08-21T12:59:11.523Z,21.70
2017-08-21T13:01:39.327Z,21.70
2017-08-21T13:04:07.011Z,21.80
2017-08-21T13:06:35.007Z,21.90
2017-08-21T13:09:02.585Z,22.00
2017-08-21T13:11:30.218Z,21.90
2017-08-21T13:13:57.997Z,22.00
2017-08-21T13:16:25.568Z,22.00
2017-08-21T13:18:53.553Z,22.10
2017-08-21T13:21:21.168Z,22.10
2017-08-21T13:23:48.749Z,22.10
2017-08-21T13:26:16.682Z,22.10
2017-08-21T13:28:44.475Z,22.10
2017-08-21T13:31:12.113Z,22.10
2017-08-21T13:33:39.700Z,23.10
2017-08-21T13:36:07.277Z,24.10
2017-08-21T13:38:34.925Z,23.60
2017-08-21T13:41:02.496Z,24.60
2017-08-21T13:43:30.244Z,24.80
2017-08-21T13:45:57.839Z,25.80
2017-08-21T13:48:25.492Z,26.70
2017-08-21T13:50:53.112Z,27.20
2017-08-21T13:53:20.836Z,26.90
2017-08-21T13:55:48.471Z,26.50
2017-08-21T13:58:16.137Z,26.40
2017-08-21T14:00:43.721Z,25.50
2017-08-21T14:03:11.384Z,25.20
2017-08-21T14:05:39.275Z,25.10
2017-08-21T14:08:07.186Z,26.10
2017-08-21T14:10:34.817Z,25.60
2017-08-21T14:13:02.554Z,25.20
2017-08-21T14:15:30.194Z,24.90
2017-08-21T14:17:57.831Z,25.00
2017-08-21T14:20:25.949Z,24.50
2017-08-21T14:22:53.544Z,24.20
2017-08-21T14:25:21.263Z,23.90
2017-08-21T14:27:48.929Z,23.70
2017-08-21T14:30:16.559Z,23.40
2017-08-21T14:32:44.233Z,23.30
2017-08-21T14:35:11.836Z,23.10
2017-08-21T14:37:39.586Z,22.90
2017-08-21T14:40:08.378Z,22.70
2017-08-21T14:42:36.025Z,22.50
2017-08-21T14:45:03.746Z,22.40
2017-08-21T14:47:31.316Z,22.40
2017-08-21T14:49:58.906Z,22.30
2017-08-21T14:52:26.511Z,22.30
2017-08-21T14:54:54.082Z,22.20
2017-08-21T14:57:21.717Z,22.10
2017-08-21T14:59:49.332Z,22.00
2017-08-21T15:02:16.961Z,22.00
2017-08-21T15:04:44.630Z,22.00
2017-08-21T15:07:12.265Z,22.00
2017-08-21T15:09:41.014Z,22.00
2017-08-21T15:12:08.564Z,22.00
2017-08-21T15:14:36.163Z,22.00
2017-08-21T15:17:03.787Z,22.00
2017-08-21T15:19:32.019Z,22.00
2017-08-21T15:21:59.936Z,22.00
2017-08-21T15:24:27.511Z,22.00
2017-08-21T15:26:55.117Z,22.10
2017-08-21T15:29:23.100Z,22.10
2017-08-21T15:31:50.808Z,22.10
2017-08-21T15:34:19.146Z,22.20
2017-08-21T15:36:47.290Z,22.20
2017-08-21T15:39:14.896Z,22.20
2017-08-21T15:41:42.560Z,22.20
2017-08-21T15:44:10.195Z,22.10
2017-08-21T15:46:37.846Z,22.10
2017-08-21T15:49:05.447Z,22.10
2017-08-21T15:51:33.047Z,22.00
2017-08-21T15:54:00.722Z,21.90
2017-08-21T15:56:28.311Z,21.90
2017-08-21T15:58:55.952Z,21.90
2017-08-21T16:01:23.522Z,21.80
2017-08-21T16:03:51.692Z,21.80
2017-08-21T16:06:19.360Z,21.70
2017-08-21T16:08:46.971Z,21.60
2017-08-21T16:11:14.575Z,21.50
2017-08-21T16:13:42.176Z,21.40
2017-08-21T16:16:09.777Z,21.30
2017-08-21T16:18:37.644Z,21.20
2017-08-21T16:21:05.462Z,21.10
2017-08-21T16:23:33.193Z,21.00
2017-08-21T16:26:00.903Z,21.10
2017-08-21T16:28:28.594Z,21.10
2017-08-21T16:30:56.222Z,21.00
2017-08-21T16:33:23.854Z,21.00
2017-08-21T16:35:52.225Z,21.00
2017-08-21T16:38:19.842Z,20.90
2017-08-21T16:40:47.694Z,20.90
2017-08-21T16:43:15.276Z,20.90
2017-08-21T16:45:43.712Z,20.90
2017-08-21T16:48:11.338Z,20.80
2017-08-21T16:50:39.123Z,20.80
2017-08-21T16:53:06.788Z,20.80
2017-08-21T16:55:34.363Z,20.80
2017-08-21T16:58:01.945Z,20.70
2017-08-21T17:00:29.590Z,20.70
2017-08-21T17:02:57.184Z,20.70
2017-08-21T17:05:25.352Z,20.60
2017-08-21T17:07:52.936Z,20.60
2017-08-21T17:10:20.515Z,20.50
2017-08-21T17:12:48.355Z,20.50
2017-08-21T17:15:15.954Z,20.50
2017-08-21T17:17:43.622Z,20.50
2017-08-21T17:20:11.188Z,20.40
2017-08-21T17:22:38.758Z,20.40
2017-08-21T17:25:06.391Z,20.30
2017-08-21T17:27:34.301Z,20.20
2017-08-21T17:30:01.925Z,20.10
2017-08-21T17:32:29.504Z,20.00
2017-08-21T17:34:57.076Z,19.90
2017-08-21T17:37:24.690Z,19.80
2017-08-21T17:39:52.460Z,19.70
2017-08-21T17:42:20.158Z,19.60
2017-08-21T17:44:47.765Z,19.60
2017-08-21T17:47:15.348Z,19.50
2017-08-21T17:49:43.004Z,19.40
2017-08-21T17:52:10.573Z,19.30
2017-08-21T17:54:38.529Z,19.30
2017-08-21T17:57:06.118Z,19.30
2017-08-21T17:59:33.727Z,19.30
2017-08-21T18:02:01.379Z,19.20
2017-08-21T18:04:30.049Z,19.20
2017-08-21T18:06:58.635Z,19.10
2017-08-21T18:09:26.226Z,19.10
2017-08-21T18:11:53.788Z,19.10
2017-08-21T18:14:21.445Z,19.00
2017-08-21T18:16:49.072Z,19.00
2017-08-21T18:19:16.753Z,19.00
2017-08-21T18:21:44.400Z,18.90
2017-08-21T18:24:11.968Z,18.90
2017-08-21T18:26:39.648Z,18.90
2017-08-21T18:29:07.319Z,18.90
2017-08-21T18:31:35.863Z,18.80
2017-08-21T18:34:03.449Z,18.90
2017-08-21T18:36:31.032Z,18.90
2017-08-21T18:38:58.677Z,18.80
2017-08-21T18:41:27.066Z,18.80
2017-08-21T18:43:54.679Z,18.80
2017-08-21T18:46:22.265Z,18.80
2017-08-21T18:48:50.229Z,18.80
2017-08-21T18:51:17.815Z,18.80
2017-08-21T18:53:45.411Z,18.70
2017-08-21T18:56:13.067Z,18.70
2017-08-21T18:58:41.141Z,18.70
2017-08-21T19:01:09.300Z,18.60
2017-08-21T19:03:36.943Z,18.50
2017-08-21T19:06:04.514Z,18.60
2017-08-21T19:08:32.135Z,18.50
2017-08-21T19:11:00.476Z,18.50
2017-08-21T19:13:28.443Z,18.60
2017-08-21T19:15:56.015Z,18.50
2017-08-21T19:18:24.405Z,18.50
2017-08-21T19:20:52.176Z,18.50
2017-08-21T19:23:19.923Z,18.50
2017-08-21T19:25:47.802Z,18.50
2017-08-21T19:28:15.410Z,18.50
2017-08-21T19:30:43.118Z,18.50
2017-08-21T19:33:10.790Z,18.50
2017-08-21T19:35:38.383Z,18.50
2017-08-21T19:38:06.541Z,18.50
2017-08-21T19:40:34.117Z,18.50
2017-08-21T19:43:01.711Z,18.50
2017-08-21T19:45:29.348Z,18.50
2017-08-21T19:47:56.917Z,18.40
2017-08-21T19:50:25.008Z,18.40
2017-08-21T19:52:52.670Z,18.40
2017-08-21T19:55:20.276Z,18.40
2017-08-21T19:57:47.929Z,18.40
2017-08-21T20:00:15.542Z,18.40
2017-08-21T20:02:43.630Z,18.40
2017-08-21T20:05:11.212Z,18.40
2017-08-21T20:07:38.864Z,18.40
2017-08-21T20:10:06.563Z,18.30
2017-08-21T20:12:34.119Z,18.30
2017-08-21T20:15:02.029Z,18.30
2017-08-21T20:17:29.618Z,18.20
2017-08-21T20:19:57.231Z,18.30
2017-08-21T20:22:25.027Z,18.30
2017-08-21T20:24:52.715Z,18.30
2017-08-21T20:27:20.741Z,18.20
2017-08-21T20:29:48.320Z,18.20
2017-08-21T20:32:15.876Z,18.20
2017-08-21T20:34:43.503Z,18.20
2017-08-21T20:37:11.080Z,18.20
2017-08-21T20:39:38.784Z,18.10
2017-08-21T20:42:06.417Z,18.10
2017-08-21T20:44:34.365Z,18.10
2017-08-21T20:47:02.065Z,18.10
2017-08-21T20:49:29.653Z,18.00
2017-08-21T20:51:57.307Z,18.00
2017-08-21T20:54:24.919Z,18.00
2017-08-21T20:56:52.868Z,18.00
2017-08-21T20:59:20.446Z,18.00
2017-08-21T21:01:48.944Z,18.00
2017-08-21T21:04:18.961Z,18.00
2017-08-21T21:06:46.557Z,18.00
2017-08-21T21:09:14.476Z,17.90
2017-08-21T21:11:42.064Z,17.90
2017-08-21T21:14:09.670Z,17.90
2017-08-21T21:16:37.322Z,17.80
2017-08-21T21:19:04.955Z,17.80
2017-08-21T21:21:33.043Z,17.80
2017-08-21T21:24:00.907Z,17.70
2017-08-21T21:26:28.558Z,17.60
2017-08-21T21:28:56.218Z,17.60
2017-08-21T21:31:23.862Z,17.60
2017-08-21T21:33:51.850Z,17.60
2017-08-21T21:36:19.415Z,17.60
2017-08-21T21:38:47.162Z,17.50
2017-08-21T21:41:14.803Z,17.50
2017-08-21T21:43:42.415Z,17.50
2017-08-21T21:46:10.301Z,17.50
2017-08-21T21:48:37.884Z,17.50
2017-08-21T21:51:05.531Z,17.50
2017-08-21T21:53:33.220Z,17.50
2017-08-21T21:56:00.897Z,17.40
2017-08-21T21:58:29.032Z,17.40
2017-08-21T22:00:56.604Z,17.40
2017-08-21T22:03:24.174Z,17.30
2017-08-21T22:05:51.809Z,17.30
2017-08-21T22:08:19.373Z,17.20
2017-08-21T22:10:47.342Z,17.20
2017-08-21T22:13:14.973Z,17.10
2017-08-21T22:15:42.556Z,17.20
2017-08-21T22:18:10.160Z,17.10
2017-08-21T22:20:37.758Z,17.10
2017-08-21T22:23:05.668Z,17.10
2017-08-21T22:25:33.244Z,17.00
2017-08-21T22:28:00.854Z,17.00
2017-08-21T22:30:28.448Z,17.00
2017-08-21T22:32:56.058Z,16.90
2017-08-21T22:35:23.955Z,16.90
2017-08-21T22:37:51.522Z,16.90
2017-08-21T22:40:19.115Z,16.80
2017-08-21T22:42:46.742Z,16.80
2017-08-21T22:45:14.433Z,16.70
2017-08-21T22:47:42.475Z,16.70
2017-08-21T22:50:10.062Z,16.60
2017-08-21T22:52:37.652Z,16.60
2017-08-21T22:55:05.309Z,16.50
2017-08-21T22:57:32.878Z,16.50
2017-08-21T23:02:48.118Z,16.40
2017-08-21T23:05:16.153Z,16.40
2017-08-21T23:07:43.757Z,16.30
2017-08-21T23:10:11.521Z,16.40
2017-08-21T23:12:39.116Z,16.40
2017-08-21T23:15:06.680Z,16.40
2017-08-21T23:17:34.691Z,16.30
2017-08-21T23:20:02.263Z,16.30
2017-08-21T23:22:29.839Z,16.30
2017-08-21T23:24:57.426Z,16.20
2017-08-21T23:27:25.012Z,16.20
2017-08-21T23:29:52.889Z,16.20
2017-08-21T23:32:20.460Z,16.20
2017-08-21T23:34:48.034Z,16.20
2017-08-21T23:37:15.672Z,16.10
2017-08-21T23:39:43.236Z,16.10
2017-08-21T23:42:11.102Z,16.10
2017-08-21T23:44:38.907Z,16.10
2017-08-21T23:47:06.478Z,16.10
2017-08-21T23:49:34.229Z,16.00
2017-08-21T23:52:01.806Z,16.00
2017-08-21T23:54:29.789Z,16.00
2017-08-21T23:56:57.376Z,16.00
2017-08-21T23:59:24.948Z,16.00
